Time;durP1;ratioP1;P1;durP2;ratioP2;P2;SDS_P1;SDS_P2;PMS_P1;PMS_P2;Temp;Humidity;BMP_temperature;BMP_pressure;BME280_temperature;BME280_humidity;BME280_pressure;Samples;Min_cycle;Max_cycle;Signal;HPM_P1;HPM_P2
2023/04/03 00:01:56;;;;;;;2.45;1.83;;;;;;;;;;5059122;28;20028;-78
2023/04/03 00:04:21;;;;;;;1.52;1.42;;;;;;;;;;5068028;28;20046;-79
2023/04/03 00:06:46;;;;;;;1.60;1.50;;;;;;;;;;5046869;28;20021;-79
2023/04/03 00:09:12;;;;;;;2.72;1.58;;;;;;;;;;5043397;28;20095;-78
2023/04/03 00:11:37;;;;;;;1.90;1.70;;;;;;;;;;5047494;28;20044;-78
2023/04/03 00:14:02;;;;;;;1.90;1.65;;;;;;;;;;5052516;28;20040;-78
2023/04/03 00:16:28;;;;;;;3.38;1.38;;;;;;;;;;5046252;28;20035;-77
2023/04/03 00:18:54;;;;;;;2.88;1.90;;;;;;;;;;5034317;28;20017;-79
2023/04/03 00:21:19;;;;;;;6.25;1.88;;;;;;;;;;5036647;28;20497;-78
2023/04/03 00:23:45;;;;;;;2.15;1.60;;;;;;;;;;5045696;28;20017;-78
2023/04/03 00:26:10;;;;;;;3.10;2.03;;;;;;;;;;5028447;28;20017;-79
2023/04/03 00:28:35;;;;;;;4.10;1.90;;;;;;;;;;5050198;28;20029;-78
2023/04/03 00:31:01;;;;;;;1.50;1.35;;;;;;;;;;5053675;28;20055;-78
2023/04/03 00:33:26;;;;;;;1.52;1.42;;;;;;;;;;5037657;28;20021;-78
2023/04/03 00:35:52;;;;;;;1.65;1.55;;;;;;;;;;5042680;28;20425;-78
2023/04/03 00:38:17;;;;;;;1.80;1.55;;;;;;;;;;5040593;28;20056;-78
2023/04/03 00:40:46;;;;;;;1.55;1.20;;;;;;;;;;5038845;28;20039;-78
2023/04/03 00:43:14;;;;;;;2.17;1.90;;;;;;;;;;5045444;28;20039;-79
2023/04/03 00:45:43;;;;;;;1.50;1.40;;;;;;;;;;5043256;28;20031;-78
2023/04/03 00:48:13;;;;;;;1.42;1.33;;;;;;;;;;5040472;28;20043;-79
2023/04/03 00:50:42;;;;;;;3.63;1.52;;;;;;;;;;5047946;28;20547;-78
2023/04/03 00:53:11;;;;;;;1.85;1.70;;;;;;;;;;5046191;28;20495;-79
2023/04/03 00:55:38;;;;;;;1.35;1.27;;;;;;;;;;5045120;28;20175;-78
2023/04/03 00:58:06;;;;;;;3.78;1.55;;;;;;;;;;5050414;28;20024;-79
2023/04/03 01:00:33;;;;;;;1.33;1.23;;;;;;;;;;5043623;28;20025;-80
2023/04/03 01:02:59;;;;;;;4.85;1.60;;;;;;;;;;5039370;28;20033;-80
2023/04/03 01:05:25;;;;;;;2.55;1.60;;;;;;;;;;5039729;28;20368;-80
2023/04/03 01:07:51;;;;;;;2.63;1.80;;;;;;;;;;5045745;28;20060;-80
2023/04/03 01:10:19;;;;;;;2.28;2.03;;;;;;;;;;5044699;28;20026;-80
2023/04/03 01:12:47;;;;;;;2.80;1.83;;;;;;;;;;5043668;28;20025;-80
2023/04/03 01:15:17;;;;;;;1.75;1.65;;;;;;;;;;5040993;28;20025;-79
2023/04/03 01:17:48;;;;;;;1.40;1.30;;;;;;;;;;5027203;28;20032;-79
2023/04/03 01:20:32;;;;;;;3.33;1.75;;;;;;;;;;5041400;28;20489;-80
2023/04/03 01:23:09;;;;;;;2.75;1.73;;;;;;;;;;5048138;28;20443;-80
2023/04/03 01:25:44;;;;;;;1.63;1.25;;;;;;;;;;5035389;28;20504;-79
2023/04/03 01:28:16;;;;;;;6.18;1.95;;;;;;;;;;5037726;28;20032;-78
2023/04/03 01:31:05;;;;;;;2.05;1.65;;;;;;;;;;5048398;28;20051;-79
2023/04/03 01:33:31;;;;;;;2.65;2.00;;;;;;;;;;5043330;28;20080;-80
2023/04/03 01:35:56;;;;;;;2.45;1.50;;;;;;;;;;5035299;28;20516;-79
2023/04/03 01:38:22;;;;;;;1.30;1.20;;;;;;;;;;5039698;28;20021;-80
2023/04/03 01:40:47;;;;;;;3.70;1.38;;;;;;;;;;5040928;28;20370;-79
2023/04/03 01:43:13;;;;;;;1.83;1.40;;;;;;;;;;5045195;28;20029;-79
2023/04/03 01:45:41;;;;;;;1.55;1.45;;;;;;;;;;5046436;28;20029;-79
2023/04/03 01:48:07;;;;;;;3.15;1.40;;;;;;;;;;5043432;28;20516;-79
2023/04/03 01:50:32;;;;;;;1.60;1.50;;;;;;;;;;5048086;28;20029;-80
2023/04/03 01:52:57;;;;;;;5.97;2.22;;;;;;;;;;5047401;28;20031;-79
2023/04/03 01:55:23;;;;;;;1.17;1.10;;;;;;;;;;5045326;28;20033;-79
2023/04/03 01:57:48;;;;;;;1.60;1.50;;;;;;;;;;5045100;28;20424;-79
2023/04/03 02:00:14;;;;;;;4.03;1.83;;;;;;;;;;5024383;28;20025;-79
2023/04/03 02:02:39;;;;;;;3.50;1.50;;;;;;;;;;5049931;28;20062;-80
2023/04/03 02:05:05;;;;;;;2.00;1.80;;;;;;;;;;5037815;28;20021;-80
2023/04/03 02:07:31;;;;;;;3.75;1.80;;;;;;;;;;5035033;28;20083;-80
2023/04/03 02:09:56;;;;;;;1.95;1.60;;;;;;;;;;5047235;28;20028;-79
2023/04/03 02:12:21;;;;;;;4.93;2.28;;;;;;;;;;5046070;28;20025;-79
2023/04/03 02:14:46;;;;;;;2.00;1.67;;;;;;;;;;5022287;28;20058;-79
2023/04/03 02:17:12;;;;;;;1.95;1.58;;;;;;;;;;5037075;28;20075;-80
2023/04/03 02:19:37;;;;;;;2.08;1.70;;;;;;;;;;5047078;28;20021;-79
2023/04/03 02:22:04;;;;;;;1.88;1.77;;;;;;;;;;5046773;28;20024;-79
2023/04/03 02:24:30;;;;;;;2.38;2.00;;;;;;;;;;5042433;28;20028;-80
2023/04/03 02:26:56;;;;;;;2.33;1.90;;;;;;;;;;5043236;28;20033;-79
2023/04/03 02:29:21;;;;;;;1.75;1.63;;;;;;;;;;5039917;28;20553;-79
2023/04/03 02:31:46;;;;;;;1.80;1.67;;;;;;;;;;5043227;28;20369;-79
2023/04/03 02:34:12;;;;;;;1.88;1.77;;;;;;;;;;5046163;28;20036;-79
2023/04/03 02:36:37;;;;;;;2.65;1.73;;;;;;;;;;5045147;28;20079;-79
2023/04/03 02:39:03;;;;;;;2.58;1.55;;;;;;;;;;5041820;28;20033;-80
2023/04/03 02:41:34;;;;;;;2.40;1.75;;;;;;;;;;5051967;28;20028;-79
2023/04/03 02:44:00;;;;;;;1.40;1.33;;;;;;;;;;5031100;28;20035;-79
2023/04/03 02:46:25;;;;;;;1.88;1.33;;;;;;;;;;5044521;28;20309;-79
2023/04/03 02:48:51;;;;;;;2.15;1.60;;;;;;;;;;5041105;28;20029;-79
2023/04/03 02:51:16;;;;;;;1.63;1.30;;;;;;;;;;5052631;28;20013;-79
2023/04/03 02:53:41;;;;;;;1.23;1.17;;;;;;;;;;5047696;28;20099;-80
2023/04/03 02:56:07;;;;;;;3.25;1.52;;;;;;;;;;5043966;28;20018;-79
2023/04/03 02:58:32;;;;;;;1.60;1.27;;;;;;;;;;5044113;28;20363;-79
2023/04/03 03:00:57;;;;;;;1.80;1.40;;;;;;;;;;5039241;28;20036;-79
2023/04/03 03:03:23;;;;;;;1.52;1.42;;;;;;;;;;5050195;28;20052;-79
2023/04/03 03:05:48;;;;;;;2.03;1.60;;;;;;;;;;5061556;28;20718;-79
2023/04/03 03:08:13;;;;;;;2.05;1.75;;;;;;;;;;5066400;28;20163;-79
2023/04/03 03:10:39;;;;;;;1.55;1.45;;;;;;;;;;5060450;28;20445;-80
2023/04/03 03:13:04;;;;;;;3.42;1.20;;;;;;;;;;5056774;28;20029;-79
2023/04/03 03:15:30;;;;;;;7.25;1.92;;;;;;;;;;5057928;28;20104;-79
2023/04/03 03:17:55;;;;;;;1.80;1.50;;;;;;;;;;5059758;28;20025;-79
2023/04/03 03:20:21;;;;;;;2.50;1.35;;;;;;;;;;5049709;28;20753;-79
2023/04/03 03:22:46;;;;;;;1.85;1.48;;;;;;;;;;5047262;28;20029;-80
2023/04/03 03:25:11;;;;;;;2.78;1.50;;;;;;;;;;5051862;28;20036;-79
2023/04/03 03:27:37;;;;;;;1.50;1.27;;;;;;;;;;5035359;28;20061;-79
2023/04/03 03:30:03;;;;;;;3.83;2.30;;;;;;;;;;5045333;28;20033;-80
2023/04/03 03:32:28;;;;;;;1.48;1.20;;;;;;;;;;5042608;28;20040;-79
2023/04/03 03:34:54;;;;;;;1.58;1.48;;;;;;;;;;5036382;28;20025;-79
2023/04/03 03:37:19;;;;;;;2.72;1.55;;;;;;;;;;5057893;28;20032;-79
2023/04/03 03:39:44;;;;;;;2.72;1.55;;;;;;;;;;5048856;28;20029;-79
2023/04/03 03:42:11;;;;;;;1.95;1.40;;;;;;;;;;5056255;28;20035;-80
2023/04/03 03:44:36;;;;;;;1.08;0.98;;;;;;;;;;5048579;28;20386;-80
2023/04/03 03:47:02;;;;;;;2.30;1.55;;;;;;;;;;5055589;28;20032;-80
2023/04/03 03:49:28;;;;;;;1.77;1.20;;;;;;;;;;5051220;28;20044;-79
2023/04/03 03:51:53;;;;;;;4.55;1.60;;;;;;;;;;5048211;28;20021;-80
2023/04/03 03:54:18;;;;;;;2.58;1.50;;;;;;;;;;5050738;28;20392;-80
2023/04/03 03:56:44;;;;;;;1.75;1.50;;;;;;;;;;5052139;28;20396;-80
2023/04/03 03:59:12;;;;;;;1.30;1.20;;;;;;;;;;5026920;28;20381;-79
2023/04/03 04:01:37;;;;;;;1.60;1.30;;;;;;;;;;5040851;28;20060;-80
2023/04/03 04:04:02;;;;;;;1.38;1.23;;;;;;;;;;5058855;28;20469;-79
2023/04/03 04:06:28;;;;;;;5.85;1.48;;;;;;;;;;5050475;28;20017;-79
2023/04/03 04:08:53;;;;;;;1.60;1.50;;;;;;;;;;5050424;28;20024;-79
2023/04/03 04:11:20;;;;;;;1.42;1.33;;;;;;;;;;5052935;28;20025;-78
2023/04/03 04:13:46;;;;;;;1.85;1.75;;;;;;;;;;5054196;28;20071;-80
2023/04/03 04:16:11;;;;;;;1.10;1.10;;;;;;;;;;5049987;28;20108;-78
2023/04/03 04:18:36;;;;;;;2.53;1.83;;;;;;;;;;5050501;28;20021;-79
2023/04/03 04:21:02;;;;;;;3.03;1.35;;;;;;;;;;5045388;28;20449;-80
2023/04/03 04:23:27;;;;;;;1.40;1.30;;;;;;;;;;5048019;28;20061;-79
2023/04/03 04:25:52;;;;;;;2.47;1.88;;;;;;;;;;5025980;28;20028;-81
2023/04/03 04:28:18;;;;;;;5.82;1.50;;;;;;;;;;5052051;28;20082;-81
2023/04/03 04:30:44;;;;;;;3.30;1.80;;;;;;;;;;5050519;28;20086;-81
2023/04/03 04:33:10;;;;;;;2.17;1.50;;;;;;;;;;5050720;28;20041;-80
2023/04/03 04:35:36;;;;;;;1.48;1.38;;;;;;;;;;5046237;28;20108;-80
2023/04/03 04:38:02;;;;;;;1.13;1.08;;;;;;;;;;5040949;28;21444;-79
2023/04/03 04:40:27;;;;;;;1.92;1.15;;;;;;;;;;5048731;28;20029;-80
2023/04/03 04:42:52;;;;;;;1.83;1.48;;;;;;;;;;5053526;28;20078;-79
2023/04/03 04:45:18;;;;;;;2.00;1.85;;;;;;;;;;5056522;28;20660;-81
2023/04/03 04:47:43;;;;;;;1.55;1.45;;;;;;;;;;5055842;28;20489;-80
2023/04/03 04:50:09;;;;;;;1.75;1.27;;;;;;;;;;5048462;28;20055;-81
2023/04/03 04:52:35;;;;;;;2.90;1.95;;;;;;;;;;5031642;28;20061;-80
2023/04/03 04:55:00;;;;;;;2.80;1.73;;;;;;;;;;5040061;28;20029;-80
2023/04/03 04:57:25;;;;;;;2.03;1.85;;;;;;;;;;5049827;28;20033;-80
2023/04/03 04:59:51;;;;;;;3.63;1.90;;;;;;;;;;5054531;28;20020;-80
2023/04/03 05:02:16;;;;;;;2.72;1.40;;;;;;;;;;5046119;28;20112;-80
2023/04/03 05:04:41;;;;;;;1.67;1.58;;;;;;;;;;5048139;28;20036;-81
2023/04/03 05:07:07;;;;;;;2.95;1.92;;;;;;;;;;5048217;28;20397;-78
2023/04/03 05:09:32;;;;;;;2.50;1.73;;;;;;;;;;5048563;28;20396;-81
2023/04/03 05:11:57;;;;;;;2.13;1.65;;;;;;;;;;5054946;28;20017;-80
2023/04/03 05:14:23;;;;;;;2.10;1.33;;;;;;;;;;5043616;28;20032;-80
2023/04/03 05:16:48;;;;;;;5.93;1.75;;;;;;;;;;5054881;28;20107;-87
2023/04/03 05:19:14;;;;;;;4.13;1.67;;;;;;;;;;5051221;28;20123;-79
2023/04/03 05:21:39;;;;;;;3.10;1.70;;;;;;;;;;5043346;28;20036;-80
2023/04/03 05:24:08;;;;;;;1.88;1.50;;;;;;;;;;5042032;28;20021;-82
2023/04/03 05:26:34;;;;;;;1.63;1.35;;;;;;;;;;5048622;28;20032;-80
2023/04/03 05:28:59;;;;;;;1.70;1.60;;;;;;;;;;5048349;28;20021;-80
2023/04/03 05:31:24;;;;;;;1.65;1.55;;;;;;;;;;5042760;28;20027;-79
2023/04/03 05:33:50;;;;;;;1.60;1.35;;;;;;;;;;5067205;28;20029;-81
2023/04/03 05:36:15;;;;;;;1.55;1.45;;;;;;;;;;5061537;28;20028;-79
2023/04/03 05:38:41;;;;;;;1.13;1.02;;;;;;;;;;5042313;28;20025;-80
2023/04/03 05:41:06;;;;;;;3.20;1.60;;;;;;;;;;5044061;28;20029;-79
2023/04/03 05:43:33;;;;;;;1.70;1.60;;;;;;;;;;5042407;28;20029;-79
2023/04/03 05:45:59;;;;;;;1.17;1.15;;;;;;;;;;5037271;28;20365;-79
2023/04/03 05:48:25;;;;;;;2.08;1.52;;;;;;;;;;5052293;28;20025;-80
2023/04/03 05:50:51;;;;;;;2.28;1.73;;;;;;;;;;5025737;28;20025;-80
2023/04/03 05:53:25;;;;;;;1.60;1.50;;;;;;;;;;5047346;28;20027;-80
2023/04/03 05:55:51;;;;;;;1.60;1.35;;;;;;;;;;5051034;28;20080;-82
2023/04/03 05:58:16;;;;;;;1.63;1.52;;;;;;;;;;5055052;28;20025;-80
2023/04/03 06:00:42;;;;;;;1.50;1.40;;;;;;;;;;5056748;28;20029;-80
2023/04/03 06:03:07;;;;;;;2.15;1.45;;;;;;;;;;5049650;28;20063;-80
2023/04/03 06:05:32;;;;;;;3.28;1.50;;;;;;;;;;5054133;28;20068;-79
2023/04/03 06:07:58;;;;;;;4.35;2.05;;;;;;;;;;5047486;28;20439;-80
2023/04/03 06:10:23;;;;;;;3.88;1.80;;;;;;;;;;5044865;28;20020;-79
2023/04/03 06:12:49;;;;;;;2.25;1.42;;;;;;;;;;5048182;28;20091;-80
2023/04/03 06:15:16;;;;;;;6.03;1.70;;;;;;;;;;5050719;28;20388;-80
2023/04/03 06:17:42;;;;;;;7.53;2.00;;;;;;;;;;5051452;28;20462;-81
2023/04/03 06:20:09;;;;;;;4.70;1.77;;;;;;;;;;5053299;28;20065;-79
2023/04/03 06:22:35;;;;;;;1.95;1.20;;;;;;;;;;5030015;28;20043;-81
2023/04/03 06:25:01;;;;;;;2.25;1.92;;;;;;;;;;5042751;28;21321;-80
2023/04/03 06:27:26;;;;;;;2.78;1.50;;;;;;;;;;5037305;28;20032;-78
2023/04/03 06:29:52;;;;;;;1.55;1.45;;;;;;;;;;5025363;28;20133;-79
2023/04/03 06:32:17;;;;;;;1.88;1.10;;;;;;;;;;5044241;28;20029;-80
2023/04/03 06:34:42;;;;;;;2.17;1.80;;;;;;;;;;5042119;28;20032;-80
2023/04/03 06:37:16;;;;;;;3.15;1.60;;;;;;;;;;5041299;28;20037;-79
2023/04/03 06:39:41;;;;;;;1.10;1.00;;;;;;;;;;5047136;28;20040;-80
2023/04/03 06:42:07;;;;;;;1.48;1.38;;;;;;;;;;5022504;28;20020;-79
2023/04/03 06:44:34;;;;;;;1.88;1.73;;;;;;;;;;5041692;28;20132;-79
2023/04/03 06:47:00;;;;;;;1.38;1.25;;;;;;;;;;5041671;28;20044;-79
2023/04/03 06:49:26;;;;;;;1.05;1.05;;;;;;;;;;5039636;28;20078;-79
2023/04/03 06:51:51;;;;;;;2.40;1.48;;;;;;;;;;5040666;28;20088;-79
2023/04/03 06:54:18;;;;;;;2.45;1.80;;;;;;;;;;5042671;28;20029;-79
2023/04/03 06:56:43;;;;;;;5.75;1.75;;;;;;;;;;5040533;28;20136;-78
2023/04/03 06:59:09;;;;;;;3.88;2.10;;;;;;;;;;5048465;28;20057;-78
2023/04/03 07:01:35;;;;;;;2.40;1.42;;;;;;;;;;5051589;28;20025;-78
2023/04/03 07:04:00;;;;;;;1.00;0.95;;;;;;;;;;5044851;28;20048;-78
2023/04/03 07:06:28;;;;;;;6.00;1.80;;;;;;;;;;5038570;28;21376;-78
2023/04/03 07:08:54;;;;;;;1.52;1.42;;;;;;;;;;5037723;28;20029;-78
2023/04/03 07:11:20;;;;;;;5.07;1.85;;;;;;;;;;5035854;28;20040;-80
2023/04/03 07:13:45;;;;;;;2.38;1.70;;;;;;;;;;5038868;28;20039;-80
2023/04/03 07:16:11;;;;;;;1.95;1.40;;;;;;;;;;5036978;28;20044;-80
2023/04/03 07:18:36;;;;;;;1.23;1.13;;;;;;;;;;5026385;28;20079;-80
2023/04/03 07:21:03;;;;;;;2.25;1.58;;;;;;;;;;5043025;28;20064;-80
2023/04/03 07:23:28;;;;;;;1.02;1.02;;;;;;;;;;5040966;28;20068;-80
2023/04/03 07:25:54;;;;;;;1.77;1.60;;;;;;;;;;5042529;28;20026;-79
2023/04/03 07:28:20;;;;;;;1.65;1.40;;;;;;;;;;5039408;28;20036;-79
2023/04/03 07:30:48;;;;;;;5.05;1.75;;;;;;;;;;5038521;28;20032;-79
2023/04/03 07:33:15;;;;;;;1.95;1.58;;;;;;;;;;5034431;28;20027;-79
2023/04/03 07:35:42;;;;;;;2.03;1.67;;;;;;;;;;5038554;28;20031;-79
2023/04/03 07:38:08;;;;;;;1.55;1.23;;;;;;;;;;5037418;28;20021;-79
2023/04/03 07:40:33;;;;;;;3.55;1.92;;;;;;;;;;5044160;28;20039;-79
2023/04/03 07:42:59;;;;;;;1.50;1.40;;;;;;;;;;5031914;28;20021;-79
2023/04/03 07:45:25;;;;;;;2.13;1.67;;;;;;;;;;5044753;28;20531;-79
2023/04/03 07:47:51;;;;;;;2.97;1.90;;;;;;;;;;5044212;28;20601;-79
2023/04/03 07:50:17;;;;;;;1.90;1.30;;;;;;;;;;5029715;28;20024;-80
2023/04/03 07:52:43;;;;;;;1.77;1.60;;;;;;;;;;5034671;28;20033;-79
2023/04/03 07:55:08;;;;;;;3.00;1.70;;;;;;;;;;5050089;28;20071;-79
2023/04/03 07:57:34;;;;;;;6.45;2.08;;;;;;;;;;5056698;28;20031;-79
2023/04/03 07:59:59;;;;;;;1.65;1.35;;;;;;;;;;5059713;28;20025;-80
2023/04/03 08:02:25;;;;;;;2.53;1.80;;;;;;;;;;5031506;28;20071;-79
2023/04/03 08:04:50;;;;;;;4.18;1.90;;;;;;;;;;5055786;28;20024;-79
2023/04/03 08:07:15;;;;;;;6.53;1.90;;;;;;;;;;5046432;28;20036;-80
2023/04/03 08:09:41;;;;;;;1.95;1.52;;;;;;;;;;5047312;28;20153;-79
2023/04/03 08:12:06;;;;;;;3.25;1.70;;;;;;;;;;5052916;28;20052;-79
2023/04/03 08:14:34;;;;;;;1.98;1.75;;;;;;;;;;5049241;28;20114;-79
2023/04/03 08:17:00;;;;;;;3.67;1.70;;;;;;;;;;5047150;28;20100;-79
2023/04/03 08:19:26;;;;;;;1.70;1.55;;;;;;;;;;5041964;28;20092;-78
2023/04/03 08:21:51;;;;;;;3.38;1.40;;;;;;;;;;5048777;28;20029;-80
2023/04/03 08:24:16;;;;;;;2.47;1.40;;;;;;;;;;5049103;28;20029;-81
2023/04/03 08:26:42;;;;;;;4.38;1.92;;;;;;;;;;5058384;28;20059;-81
2023/04/03 08:29:07;;;;;;;3.60;1.90;;;;;;;;;;5046422;28;20025;-81
2023/04/03 08:31:33;;;;;;;4.05;1.80;;;;;;;;;;5059338;28;20032;-81
2023/04/03 08:33:58;;;;;;;1.40;1.30;;;;;;;;;;5055909;28;20036;-80
2023/04/03 08:36:29;;;;;;;4.53;2.00;;;;;;;;;;5057369;28;20595;-81
2023/04/03 08:38:56;;;;;;;2.17;1.50;;;;;;;;;;5040330;28;20025;-81
2023/04/03 08:41:32;;;;;;;2.83;1.73;;;;;;;;;;5041532;28;20099;-80
2023/04/03 08:44:04;;;;;;;3.28;1.73;;;;;;;;;;5057523;28;20032;-80
2023/04/03 08:46:49;;;;;;;4.28;1.85;;;;;;;;;;5050392;28;20096;-79
2023/04/03 08:49:25;;;;;;;1.77;1.30;;;;;;;;;;5048620;28;20029;-79
2023/04/03 08:51:52;;;;;;;3.22;1.65;;;;;;;;;;5056358;28;20017;-78
2023/04/03 08:54:29;;;;;;;2.13;1.45;;;;;;;;;;5047699;28;20039;-78
2023/04/03 08:56:55;;;;;;;4.63;1.70;;;;;;;;;;5057960;28;20021;-78
2023/04/03 08:59:28;;;;;;;4.70;1.80;;;;;;;;;;5051388;28;20025;-78
2023/04/03 09:01:57;;;;;;;1.83;1.42;;;;;;;;;;5050984;28;20025;-78
2023/04/03 09:04:23;;;;;;;1.45;1.35;;;;;;;;;;5055032;28;20034;-78
2023/04/03 09:06:54;;;;;;;2.72;1.73;;;;;;;;;;5056698;28;20056;-78
2023/04/03 09:09:40;;;;;;;4.65;1.95;;;;;;;;;;5054991;28;20025;-78
2023/04/03 09:12:10;;;;;;;2.75;1.48;;;;;;;;;;5055433;28;20111;-79
2023/04/03 09:14:46;;;;;;;2.03;1.80;;;;;;;;;;5056631;28;20082;-79
2023/04/03 09:17:35;;;;;;;2.42;1.60;;;;;;;;;;5059701;28;20025;-79
2023/04/03 09:20:09;;;;;;;2.35;1.50;;;;;;;;;;5047291;28;20116;-79
2023/04/03 09:22:41;;;;;;;3.03;1.70;;;;;;;;;;5041298;28;20112;-79
2023/04/03 09:25:18;;;;;;;1.80;1.23;;;;;;;;;;5041415;28;20092;-79
2023/04/03 09:27:43;;;;;;;5.90;1.88;;;;;;;;;;5034281;28;20979;-78
2023/04/03 09:30:17;;;;;;;1.85;1.33;;;;;;;;;;5035314;28;20095;-79
2023/04/03 09:32:46;;;;;;;1.55;1.42;;;;;;;;;;5039032;28;20042;-78
2023/04/03 09:35:33;;;;;;;1.20;1.10;;;;;;;;;;5039188;28;20101;-78
2023/04/03 09:38:15;;;;;;;4.05;1.40;;;;;;;;;;5047365;28;20028;-78
2023/04/03 09:40:46;;;;;;;2.42;1.42;;;;;;;;;;5050243;28;20040;-79
2023/04/03 09:43:32;;;;;;;2.72;1.23;;;;;;;;;;5057861;28;20029;-78
2023/04/03 09:46:37;;;;;;;1.35;1.30;;;;;;;;;;5058660;23;20193;-80
2023/04/03 09:49:05;;;;;;;1.05;1.00;;;;;;;;;;5009754;28;20025;-80
2023/04/03 09:51:31;;;;;;;3.72;1.40;;;;;;;;;;5010677;28;20128;-80
2023/04/03 09:53:57;;;;;;;1.58;1.33;;;;;;;;;;5017733;28;20459;-80
2023/04/03 09:56:35;;;;;;;1.40;1.30;;;;;;;;;;5024308;28;20108;-80
2023/04/03 09:59:03;;;;;;;3.08;1.58;;;;;;;;;;5026819;28;20031;-81
2023/04/03 10:01:37;;;;;;;1.85;1.48;;;;;;;;;;5015362;28;20523;-80
2023/04/03 10:04:19;;;;;;;1.52;1.25;;;;;;;;;;5017270;28;20378;-81
2023/04/03 10:06:51;;;;;;;1.75;1.48;;;;;;;;;;5019503;28;20029;-81
2023/04/03 10:09:24;;;;;;;;;;;;;;;;;;5002503;28;20103;-80
2023/04/03 10:12:10;;;;;;;3.58;2.00;;;;;;;;;;5024627;28;20487;-80
2023/04/03 10:14:57;;;;;;;1.13;1.10;;;;;;;;;;5043755;23;20037;-80
2023/04/03 10:17:28;;;;;;;1.20;1.10;;;;;;;;;;5022344;28;20054;-79
2023/04/03 10:20:20;;;;;;;1.08;1.08;;;;;;;;;;5019940;28;20144;-83
2023/04/03 10:23:17;;;;;;;2.85;1.50;;;;;;;;;;5003563;28;20041;-79
2023/04/03 10:26:27;;;;;;;1.40;1.15;;;;;;;;;;5035910;22;20080;-79
2023/04/03 10:29:21;;;;;;;1.20;1.10;;;;;;;;;;5013325;28;20029;-79
2023/04/03 10:31:59;;;;;;;1.35;1.23;;;;;;;;;;5015801;28;20033;-79
2023/04/03 10:34:30;;;;;;;1.77;1.40;;;;;;;;;;5013995;28;20041;-79
2023/04/03 10:37:25;;;;;;;1.23;1.13;;;;;;;;;;4994385;28;20227;-78
2023/04/03 10:39:50;;;;;;;4.57;1.15;;;;;;;;;;4997430;28;20053;-78
2023/04/03 10:42:46;;;;;;;1.35;1.10;;;;;;;;;;5009465;28;20027;-78
2023/04/03 10:45:46;;;;;;;1.20;1.08;;;;;;;;;;5018305;28;20044;-78
2023/04/03 10:48:27;;;;;;;1.45;1.20;;;;;;;;;;5018001;28;20052;-78
2023/04/03 10:51:06;;;;;;;2.95;1.55;;;;;;;;;;5016925;28;20081;-78
2023/04/03 10:53:57;;;;;;;1.40;1.10;;;;;;;;;;5014501;28;20041;-78
2023/04/03 10:56:44;;;;;;;1.10;1.00;;;;;;;;;;5012861;28;20030;-78
2023/04/03 10:59:20;;;;;;;0.65;0.65;;;;;;;;;;5013329;28;20050;-78
2023/04/03 11:01:53;;;;;;;1.25;1.17;;;;;;;;;;4996573;28;20029;-78
2023/04/03 11:04:21;;;;;;;1.60;1.42;;;;;;;;;;5011336;28;20052;-79
2023/04/03 11:07:00;;;;;;;1.02;1.02;;;;;;;;;;5007914;28;20026;-78
2023/04/03 11:09:31;;;;;;;1.23;1.02;;;;;;;;;;5014793;28;20030;-78
2023/04/03 11:12:27;;;;;;;2.85;1.27;;;;;;;;;;5016875;28;20044;-78
2023/04/03 11:14:56;;;;;;;1.20;1.10;;;;;;;;;;4975720;28;20037;-78
2023/04/03 11:17:36;;;;;;;2.25;1.58;;;;;;;;;;5018330;28;20018;-77
2023/04/03 11:20:18;;;;;;;1.17;1.08;;;;;;;;;;5003000;28;20037;-77
2023/04/03 11:22:53;;;;;;;1.00;1.00;;;;;;;;;;4997452;28;20096;-77
2023/04/03 11:25:25;;;;;;;2.63;1.40;;;;;;;;;;4998124;28;20026;-77
2023/04/03 11:27:55;;;;;;;1.33;1.15;;;;;;;;;;5005331;28;20055;-77
2023/04/03 11:30:44;;;;;;;0.98;0.95;;;;;;;;;;5027483;28;20022;-77
2023/04/03 11:33:37;;;;;;;1.63;1.15;;;;;;;;;;5037629;28;20022;-77
2023/04/03 11:36:25;;;;;;;1.13;1.08;;;;;;;;;;4998515;28;20033;-77
2023/04/03 11:38:55;;;;;;;1.30;0.93;;;;;;;;;;5010317;28;20026;-78
2023/04/03 11:41:31;;;;;;;1.17;1.15;;;;;;;;;;5025803;28;20025;-77
2023/04/03 11:44:03;;;;;;;1.30;1.13;;;;;;;;;;5024287;28;20129;-78
2023/04/03 11:46:49;;;;;;;;;;;;;;;;;;5015341;28;20464;-77
2023/04/03 11:49:52;;;;;;;1.30;1.20;;;;;;;;;;5022654;28;20369;-77
2023/04/03 11:52:39;;;;;;;2.33;1.05;;;;;;;;;;5018304;28;20022;-77
2023/04/03 11:55:20;;;;;;;2.33;1.10;;;;;;;;;;5016678;28;20026;-77
2023/04/03 11:58:01;;;;;;;5.25;1.50;;;;;;;;;;5017782;28;20022;-79
2023/04/03 12:03:22;;;;;;;0.90;0.90;;;;;;;;;;5018257;28;20049;-78
2023/04/03 12:05:48;;;;;;;0.95;0.95;;;;;;;;;;5019614;28;20041;-77
2023/04/03 12:08:29;;;;;;;2.78;1.83;;;;;;;;;;5015372;28;20022;-78
2023/04/03 12:11:10;;;;;;;1.17;1.08;;;;;;;;;;5018341;28;20033;-78
2023/04/03 12:13:56;;;;;;;1.00;1.00;;;;;;;;;;5020155;28;20036;-78
2023/04/03 12:16:48;;;;;;;2.05;1.52;;;;;;;;;;5017930;28;20026;-78
2023/04/03 12:19:13;;;;;;;2.97;0.82;;;;;;;;;;5014105;28;20038;-77
2023/04/03 12:21:51;;;;;;;1.98;1.17;;;;;;;;;;5012929;28;20363;-78
2023/04/03 12:24:17;;;;;;;3.33;1.38;;;;;;;;;;5017489;28;20037;-78
2023/04/03 12:27:01;;;;;;;2.58;0.82;;;;;;;;;;5017119;28;20030;-78
2023/04/03 12:29:40;;;;;;;0.82;0.82;;;;;;;;;;5000109;28;20409;-78
2023/04/03 12:32:17;;;;;;;2.60;1.27;;;;;;;;;;5018016;28;20132;-78
2023/04/03 12:34:58;;;;;;;1.38;1.10;;;;;;;;;;5016598;28;20038;-78
2023/04/03 12:38:03;;;;;;;2.80;1.50;;;;;;;;;;5018621;28;20475;-78
2023/04/03 12:40:59;;;;;;;1.92;1.20;;;;;;;;;;5016769;28;20513;-78
2023/04/03 12:43:50;;;;;;;0.93;0.93;;;;;;;;;;5017214;28;20040;-78
2023/04/03 12:46:21;;;;;;;2.17;1.25;;;;;;;;;;5018743;28;20022;-78
2023/04/03 12:48:56;;;;;;;2.75;1.23;;;;;;;;;;5019251;28;20026;-77
2023/04/03 12:51:39;;;;;;;2.67;1.02;;;;;;;;;;5017815;28;20084;-78
2023/04/03 12:57:12;;;;;;;4.35;1.40;;;;;;;;;;5070936;23;20060;-77
2023/04/03 12:59:38;;;;;;;1.23;1.02;;;;;;;;;;5074047;28;20024;-78
2023/04/03 13:02:17;;;;;;;2.28;1.27;;;;;;;;;;5074288;28;20038;-78
2023/04/03 13:04:42;;;;;;;2.53;1.30;;;;;;;;;;5078265;28;20051;-80
2023/04/03 13:07:22;;;;;;;1.13;1.02;;;;;;;;;;5079919;28;20032;-79
2023/04/03 13:10:07;;;;;;;4.20;1.35;;;;;;;;;;5078345;28;20527;-78
2023/04/03 13:12:33;;;;;;;9.27;1.50;;;;;;;;;;5069198;28;20024;-80
2023/04/03 13:15:04;;;;;;;1.95;1.23;;;;;;;;;;5060031;28;20031;-79
2023/04/03 13:17:31;;;;;;;2.47;1.45;;;;;;;;;;5079828;28;20069;-82
2023/04/03 13:20:10;;;;;;;2.05;1.55;;;;;;;;;;5061095;28;20115;-78
2023/04/03 13:22:43;;;;;;;2.15;1.42;;;;;;;;;;5078553;28;20043;-79
2023/04/03 13:25:12;;;;;;;1.25;1.10;;;;;;;;;;5078656;28;20277;-81
2023/04/03 13:27:42;;;;;;;2.65;1.20;;;;;;;;;;5072014;28;20035;-79
2023/04/03 13:30:24;;;;;;;3.40;0.80;;;;;;;;;;5068318;28;20019;-78
2023/04/03 13:32:49;;;;;;;1.70;1.60;;;;;;;;;;5068804;28;20044;-79
2023/04/03 13:35:26;;;;;;;2.05;1.15;;;;;;;;;;5067772;28;20048;-79
2023/04/03 13:38:00;;;;;;;5.63;1.25;;;;;;;;;;5071509;28;20031;-78
2023/04/03 13:40:26;;;;;;;0.90;0.90;;;;;;;;;;5065046;28;20021;-78
2023/04/03 13:43:04;;;;;;;1.13;1.02;;;;;;;;;;5071676;28;20573;-80
2023/04/03 13:45:32;;;;;;;9.40;1.90;;;;;;;;;;5064195;28;20035;-80
2023/04/03 13:48:10;;;;;;;1.75;1.27;;;;;;;;;;5070371;28;20083;-78
2023/04/03 13:51:13;;;;;;;1.88;1.50;;;;;;;;;;5074839;28;20025;-79
2023/04/03 13:54:17;;;;;;;3.45;1.48;;;;;;;;;;5059143;28;20512;-79
2023/04/03 13:56:43;;;;;;;0.93;0.93;;;;;;;;;;5048322;28;20036;-79
2023/04/03 13:59:11;;;;;;;1.67;1.30;;;;;;;;;;5061354;28;20028;-78
2023/04/03 14:01:48;;;;;;;2.08;1.15;;;;;;;;;;5079011;28;20059;-79
2023/04/03 14:04:25;;;;;;;1.58;1.35;;;;;;;;;;5079261;28;20055;-79
2023/04/03 14:06:51;;;;;;;2.50;1.60;;;;;;;;;;5078124;28;20039;-78
2023/04/03 14:09:18;;;;;;;2.13;1.30;;;;;;;;;;5078965;28;20107;-79
2023/04/03 14:11:46;;;;;;;1.70;1.27;;;;;;;;;;5074579;28;20032;-78
2023/04/03 14:14:21;;;;;;;2.60;1.52;;;;;;;;;;5078882;28;20610;-79
2023/04/03 14:16:52;;;;;;;1.40;1.17;;;;;;;;;;5075335;28;20028;-78
2023/04/03 14:19:22;;;;;;;1.23;1.13;;;;;;;;;;5078416;28;20025;-79
2023/04/03 14:21:48;;;;;;;1.38;1.25;;;;;;;;;;5060509;28;20040;-78
2023/04/03 14:24:13;;;;;;;1.20;1.10;;;;;;;;;;5078349;28;20435;-78
2023/04/03 14:26:38;;;;;;;3.75;1.50;;;;;;;;;;5077287;28;20024;-78
2023/04/03 14:29:04;;;;;;;1.73;0.95;;;;;;;;;;5070939;28;20115;-79
2023/04/03 14:31:29;;;;;;;2.00;0.90;;;;;;;;;;5072167;28;20025;-78
2023/04/03 14:33:55;;;;;;;2.05;0.93;;;;;;;;;;5073829;28;20028;-77
2023/04/03 14:36:25;;;;;;;1.00;1.00;;;;;;;;;;5068799;28;20043;-78
2023/04/03 14:38:51;;;;;;;2.35;1.40;;;;;;;;;;5071806;28;20032;-78
2023/04/03 14:41:20;;;;;;;3.38;1.38;;;;;;;;;;5069698;28;20060;-79
2023/04/03 14:43:46;;;;;;;2.97;1.13;;;;;;;;;;5070747;28;20028;-79
2023/04/03 14:46:13;;;;;;;2.67;1.20;;;;;;;;;;5059042;28;20023;-78
2023/04/03 14:48:39;;;;;;;1.67;1.23;;;;;;;;;;5057970;28;20039;-79
2023/04/03 14:51:04;;;;;;;1.23;0.93;;;;;;;;;;5065200;28;20034;-79
2023/04/03 14:53:32;;;;;;;1.20;1.20;;;;;;;;;;5080010;28;20035;-79
2023/04/03 14:55:57;;;;;;;1.95;1.55;;;;;;;;;;5078758;28;20024;-78
2023/04/03 14:58:23;;;;;;;2.53;1.42;;;;;;;;;;5081436;28;20047;-78
2023/04/03 15:00:48;;;;;;;2.25;0.85;;;;;;;;;;5086558;28;20059;-78
2023/04/03 15:03:19;;;;;;;2.78;1.08;;;;;;;;;;5087747;28;20032;-78
2023/04/03 15:05:46;;;;;;;2.65;1.00;;;;;;;;;;5086764;28;20372;-78
2023/04/03 15:08:24;;;;;;;2.50;1.23;;;;;;;;;;5087020;28;20086;-79